Terminal Aerodrome Forecast
Issued by NWS

Home | Current Version | Previous Version | Text Only | Print | Product List | Glossary On
Versions: 1 2 3 4 5 6 7 8 9 10 11 12 13 14 15 16 17 18 19 20 21 22 23 24
000
FTAK31 PAFA 261132
TAFAOM
TAF
PAOM 261132Z 2612/2712 20015KT 6SM -SHSN BR SCT025 BKN035 OVC050
      TEMPO 2612/2615 2SM -SHSN BR BKN015 OVC025
     FM261500 23012KT 6SM -SHSN BR SCT025 BKN035 OVC050
      TEMPO 2615/2618 2SM -SN BR BKN015 OVC025
     FM261800 23012KT 6SM -SHSN BR SCT025 BKN035 OVC050=

USA.gov is the U.S. government's official web portal to all federal, state and local government web resources and services.